Terminal Aerodrome Forecast
Issued by NWS

Home | Current Version | Previous Version | Text Only | Print | Product List | Glossary On
Versions: 1 2 3 4 5 6 7 8 9 10 11 12 13 14 15 16 17 18 19 20 21
285
FTUS41 KGYX 130547
TAFHIE
TAF
KHIE 130547Z 1306/1406 VRB03KT P6SM SCT060 BKN100
     FM130800 VRB03KT 4SM -SHSN BR SCT025 BKN040 OVC070
      TEMPO 1309/1313 1/2SM SN BKN012 OVC020
     FM131300 30008KT 3SM -SHSN BKN020 OVC035
     FM131900 30012G22KT 4SM -SHSN SCT025 OVC040
     FM140000 30010KT P6SM BKN040 BKN070=

USA.gov is the U.S. government's official web portal to all federal, state and local government web resources and services.